Madison, WI (53705)

11:51 PM CDT on September 02, 2014 (GMT -0500)
Hill Farms East | Change Station
CLOSE
Current Station
Personal Weather Station
Location: Madison, WI
Elevation: 974 ft
Nearby Weather Stations

Elev 974 ft 43.07 °N, 89.46 °W | Updated 34 seconds ago

Clear
Clear
63.4 °F
Feels Like 63.4 °F
N
0.0
Wind Variable Wind from WSW

Today
High -- | Low -- °F
--% Chance of Precip.
Yesterday
High -- | Low -- °F
Precip. -- in
6:23 AM 7:30 PM
First Quarter, 58% visible
Pressure 29.97 in
Visibility 10.0 miles
Clouds Clear
Dew Point 58 °F
Humidity 83%
Rainfall 0.00 in
Snow Depth Not available.
UV 0 out of 12
Pollen 9.80 out of 12
PM2.5 Good
Flu Activity Not available.
METAR KC29 030435Z AUTO 00000KT 10SM CLR 15/15 A2997 RMK AO1 T01530147

More Conditions Fewer Conditions

Pressure 29.97 in
Visibility 10.0 miles
Clouds Clear
Dew Point 58 °F
Humidity 83%
Rainfall 0.00 in
Snow Depth Not available.
UV 0 out of 12
Pollen 9.80 out of 12
PM2.5 Good
Flu Activity Not available.
METAR KC29 030435Z AUTO 00000KT 10SM CLR 15/15 A2997 RMK AO1 T01530147

More Conditions Fewer Conditions

10-Day Weather Forecast

Almanac

Astronomy

Sep. 02, 2014 Rise Set
Actual Time 6:23 AM CDT 7:30 PM CDT
Civil Twilight 5:54 AM CDT 7:59 PM CDT
Nautical Twilight 5:19 AM CDT 8:34 PM CDT
Astronomical Twilight 4:42 AM CDT 9:11 PM CDT
Moon 2:18 PM CDT (9/2) No Moon Set
Length of Visible Light 14h 05m
Length of Day
13h 07m
Tomorrow will be 2m 49s shorter.
First Quarter, 58% of the Moon is Illuminated
Sep 3
First Quarter
Sep 8
Full
Sep 15
Last Quarter
Sep 24
New
Oct 1
First Quarter

Yesterday's Extremes

State Highs State Lows

Community

WunderPhotos

Upload Photos

1,749,875 photos uploaded!

Nearby

Air Quality

  Air Quality AQ Index Pollutant
Yesterday Good
OZONE
Yesterday Good
PM2.5
Current Good
PM2.5
Tuesday Good
OZONE
Tuesday Good
PM2.5
Wednesday Good
OZONE
Wednesday Good
PM2.5
Thursday Moderate
OZONE
Thursday Moderate
PM2.5
Friday Good
OZONE
Friday Good
PM2.5
Saturday Good
OZONE
Saturday Good
PM2.5
Sunday Good
OZONE
Sunday Good
PM2.5

Snow Depth

Station Depth Elevation
No new snow has been reported.

Earthquake Activity

City Distance Mag. Time & Date
No recent earthquake activity has been reported nearby.
Minimum magnitude displayed is 2.5.

Coastal Water Temperatures

Place Temperature
No Stations Reporting

Nearby Weather Stations